sensor_id;sensor_type;location;lat;lon;timestamp;P1;durP1;ratioP1;P2;durP2;ratioP2
12519;SDS011;6325;49.540;8.364;2022-10-31T00:00:31;4.90;;;4.40;;
12519;SDS011;6325;49.540;8.364;2022-10-31T00:03:00;5.50;;;5.00;;
12519;SDS011;6325;49.540;8.364;2022-10-31T00:05:27;5.35;;;4.85;;
12519;SDS011;6325;49.540;8.364;2022-10-31T00:07:53;6.18;;;5.57;;
12519;SDS011;6325;49.540;8.364;2022-10-31T00:10:20;5.50;;;5.00;;
12519;SDS011;6325;49.540;8.364;2022-10-31T00:12:47;5.50;;;5.00;;
12519;SDS011;6325;49.540;8.364;2022-10-31T00:15:14;6.90;;;6.13;;
12519;SDS011;6325;49.540;8.364;2022-10-31T00:17:41;5.60;;;5.10;;
12519;SDS011;6325;49.540;8.364;2022-10-31T00:20:10;5.55;;;5.05;;
12519;SDS011;6325;49.540;8.364;2022-10-31T00:22:37;5.60;;;5.10;;
12519;SDS011;6325;49.540;8.364;2022-10-31T00:25:04;5.60;;;5.00;;
12519;SDS011;6325;49.540;8.364;2022-10-31T00:27:31;6.78;;;5.43;;
12519;SDS011;6325;49.540;8.364;2022-10-31T00:29:58;5.33;;;4.80;;
12519;SDS011;6325;49.540;8.364;2022-10-31T00:32:25;5.35;;;4.90;;
12519;SDS011;6325;49.540;8.364;2022-10-31T00:34:54;5.47;;;4.97;;
12519;SDS011;6325;49.540;8.364;2022-10-31T00:37:23;5.40;;;4.90;;
12519;SDS011;6325;49.540;8.364;2022-10-31T00:39:50;5.90;;;5.32;;
12519;SDS011;6325;49.540;8.364;2022-10-31T00:42:16;5.33;;;4.63;;
12519;SDS011;6325;49.540;8.364;2022-10-31T00:44:43;5.15;;;4.68;;
12519;SDS011;6325;49.540;8.364;2022-10-31T00:47:10;5.13;;;4.60;;
12519;SDS011;6325;49.540;8.364;2022-10-31T00:49:37;6.45;;;4.53;;
12519;SDS011;6325;49.540;8.364;2022-10-31T00:52:04;5.22;;;4.60;;
12519;SDS011;6325;49.540;8.364;2022-10-31T00:54:33;5.47;;;4.47;;
12519;SDS011;6325;49.540;8.364;2022-10-31T00:57:00;4.60;;;4.20;;
12519;SDS011;6325;49.540;8.364;2022-10-31T00:59:26;4.20;;;3.85;;
12519;SDS011;6325;49.540;8.364;2022-10-31T01:01:54;5.13;;;4.53;;
12519;SDS011;6325;49.540;8.364;2022-10-31T01:04:21;4.70;;;4.30;;
12519;SDS011;6325;49.540;8.364;2022-10-31T01:06:48;4.45;;;4.05;;
12519;SDS011;6325;49.540;8.364;2022-10-31T01:09:15;4.32;;;3.92;;
12519;SDS011;6325;49.540;8.364;2022-10-31T01:11:44;4.10;;;3.80;;
12519;SDS011;6325;49.540;8.364;2022-10-31T01:14:11;5.00;;;4.60;;
12519;SDS011;6325;49.540;8.364;2022-10-31T01:16:37;3.97;;;3.67;;
12519;SDS011;6325;49.540;8.364;2022-10-31T01:19:04;6.57;;;4.85;;
12519;SDS011;6325;49.540;8.364;2022-10-31T01:21:31;4.47;;;4.07;;
12519;SDS011;6325;49.540;8.364;2022-10-31T01:23:59;4.90;;;4.43;;
12519;SDS011;6325;49.540;8.364;2022-10-31T01:26:27;4.30;;;3.88;;
12519;SDS011;6325;49.540;8.364;2022-10-31T01:28:58;4.20;;;3.80;;
12519;SDS011;6325;49.540;8.364;2022-10-31T01:31:26;4.47;;;4.07;;
12519;SDS011;6325;49.540;8.364;2022-10-31T01:33:56;4.60;;;4.20;;
12519;SDS011;6325;49.540;8.364;2022-10-31T01:36:24;4.17;;;3.77;;
12519;SDS011;6325;49.540;8.364;2022-10-31T01:38:53;4.35;;;3.92;;
12519;SDS011;6325;49.540;8.364;2022-10-31T01:41:25;3.92;;;3.63;;
12519;SDS011;6325;49.540;8.364;2022-10-31T01:43:54;4.10;;;3.63;;
12519;SDS011;6325;49.540;8.364;2022-10-31T01:46:24;4.00;;;3.70;;
12519;SDS011;6325;49.540;8.364;2022-10-31T01:48:54;4.60;;;4.10;;
12519;SDS011;6325;49.540;8.364;2022-10-31T01:51:25;3.80;;;3.50;;
12519;SDS011;6325;49.540;8.364;2022-10-31T01:53:55;3.92;;;3.63;;
12519;SDS011;6325;49.540;8.364;2022-10-31T01:56:27;4.28;;;3.90;;
12519;SDS011;6325;49.540;8.364;2022-10-31T01:58:54;3.90;;;3.60;;
12519;SDS011;6325;49.540;8.364;2022-10-31T02:01:25;3.65;;;3.40;;
12519;SDS011;6325;49.540;8.364;2022-10-31T02:03:52;4.13;;;3.72;;
12519;SDS011;6325;49.540;8.364;2022-10-31T02:06:29;4.88;;;4.00;;
12519;SDS011;6325;49.540;8.364;2022-10-31T02:09:03;4.25;;;3.85;;
12519;SDS011;6325;49.540;8.364;2022-10-31T02:11:31;4.05;;;3.65;;
12519;SDS011;6325;49.540;8.364;2022-10-31T02:13:59;4.72;;;4.25;;
12519;SDS011;6325;49.540;8.364;2022-10-31T02:16:29;4.40;;;4.00;;
12519;SDS011;6325;49.540;8.364;2022-10-31T02:18:55;4.68;;;4.20;;
12519;SDS011;6325;49.540;8.364;2022-10-31T02:21:23;4.57;;;4.18;;
12519;SDS011;6325;49.540;8.364;2022-10-31T02:24:05;4.03;;;3.72;;
12519;SDS011;6325;49.540;8.364;2022-10-31T02:27:04;4.00;;;3.70;;
12519;SDS011;6325;49.540;8.364;2022-10-31T02:32:40;4.35;;;3.80;;
12519;SDS011;6325;49.540;8.364;2022-10-31T02:35:17;3.63;;;3.33;;
12519;SDS011;6325;49.540;8.364;2022-10-31T02:37:54;4.07;;;3.78;;
12519;SDS011;6325;49.540;8.364;2022-10-31T02:40:29;3.70;;;3.40;;
12519;SDS011;6325;49.540;8.364;2022-10-31T02:43:00;4.57;;;4.00;;
12519;SDS011;6325;49.540;8.364;2022-10-31T02:45:32;5.80;;;4.53;;
12519;SDS011;6325;49.540;8.364;2022-10-31T02:48:09;4.60;;;4.10;;
12519;SDS011;6325;49.540;8.364;2022-10-31T02:50:41;4.38;;;3.97;;
12519;SDS011;6325;49.540;8.364;2022-10-31T02:53:13;4.53;;;3.92;;
12519;SDS011;6325;49.540;8.364;2022-10-31T02:55:49;4.68;;;4.15;;
12519;SDS011;6325;49.540;8.364;2022-10-31T02:58:21;4.13;;;3.83;;
12519;SDS011;6325;49.540;8.364;2022-10-31T03:04:05;4.40;;;3.70;;
12519;SDS011;6325;49.540;8.364;2022-10-31T03:06:49;4.10;;;3.80;;
12519;SDS011;6325;49.540;8.364;2022-10-31T03:09:24;4.45;;;4.00;;
12519;SDS011;6325;49.540;8.364;2022-10-31T03:11:57;3.90;;;3.60;;
12519;SDS011;6325;49.540;8.364;2022-10-31T03:14:31;4.20;;;3.90;;
12519;SDS011;6325;49.540;8.364;2022-10-31T03:17:05;4.00;;;3.67;;
12519;SDS011;6325;49.540;8.364;2022-10-31T03:19:40;3.85;;;3.55;;
12519;SDS011;6325;49.540;8.364;2022-10-31T03:22:14;4.00;;;3.60;;
12519;SDS011;6325;49.540;8.364;2022-10-31T03:24:43;3.97;;;3.67;;
12519;SDS011;6325;49.540;8.364;2022-10-31T03:27:13;4.10;;;3.80;;
12519;SDS011;6325;49.540;8.364;2022-10-31T03:29:44;4.03;;;3.72;;
12519;SDS011;6325;49.540;8.364;2022-10-31T03:32:15;5.03;;;4.50;;
12519;SDS011;6325;49.540;8.364;2022-10-31T03:34:47;4.25;;;3.85;;
12519;SDS011;6325;49.540;8.364;2022-10-31T03:37:18;4.47;;;4.10;;
12519;SDS011;6325;49.540;8.364;2022-10-31T03:39:47;4.05;;;3.75;;
12519;SDS011;6325;49.540;8.364;2022-10-31T03:42:15;3.80;;;3.50;;
12519;SDS011;6325;49.540;8.364;2022-10-31T03:44:49;3.90;;;3.60;;
12519;SDS011;6325;49.540;8.364;2022-10-31T03:47:22;3.80;;;3.50;;
12519;SDS011;6325;49.540;8.364;2022-10-31T03:49:51;3.40;;;3.20;;
12519;SDS011;6325;49.540;8.364;2022-10-31T03:52:19;4.22;;;3.90;;
12519;SDS011;6325;49.540;8.364;2022-10-31T03:54:54;4.00;;;3.58;;
12519;SDS011;6325;49.540;8.364;2022-10-31T03:57:26;4.07;;;3.78;;
12519;SDS011;6325;49.540;8.364;2022-10-31T03:59:59;4.10;;;3.80;;
12519;SDS011;6325;49.540;8.364;2022-10-31T04:02:30;4.00;;;3.60;;
12519;SDS011;6325;49.540;8.364;2022-10-31T04:05:01;4.15;;;3.80;;
12519;SDS011;6325;49.540;8.364;2022-10-31T04:07:30;4.65;;;4.20;;
12519;SDS011;6325;49.540;8.364;2022-10-31T04:10:01;4.35;;;3.97;;
12519;SDS011;6325;49.540;8.364;2022-10-31T04:12:33;4.33;;;3.93;;
12519;SDS011;6325;49.540;8.364;2022-10-31T04:15:02;3.95;;;3.65;;
12519;SDS011;6325;49.540;8.364;2022-10-31T04:17:34;4.68;;;4.28;;
12519;SDS011;6325;49.540;8.364;2022-10-31T04:20:07;4.50;;;4.13;;
12519;SDS011;6325;49.540;8.364;2022-10-31T04:22:34;4.35;;;3.95;;
12519;SDS011;6325;49.540;8.364;2022-10-31T04:25:01;4.30;;;4.00;;
12519;SDS011;6325;49.540;8.364;2022-10-31T04:27:28;5.97;;;4.93;;
12519;SDS011;6325;49.540;8.364;2022-10-31T04:29:55;8.03;;;6.80;;
12519;SDS011;6325;49.540;8.364;2022-10-31T04:32:22;6.72;;;6.00;;
12519;SDS011;6325;49.540;8.364;2022-10-31T04:34:49;8.48;;;6.75;;
12519;SDS011;6325;49.540;8.364;2022-10-31T04:37:17;7.20;;;6.50;;
12519;SDS011;6325;49.540;8.364;2022-10-31T04:39:44;6.78;;;6.07;;
12519;SDS011;6325;49.540;8.364;2022-10-31T04:42:11;7.90;;;6.18;;
12519;SDS011;6325;49.540;8.364;2022-10-31T04:44:38;5.47;;;4.93;;
12519;SDS011;6325;49.540;8.364;2022-10-31T04:47:05;6.88;;;5.72;;
12519;SDS011;6325;49.540;8.364;2022-10-31T04:49:32;7.78;;;5.88;;
12519;SDS011;6325;49.540;8.364;2022-10-31T04:51:59;6.50;;;5.10;;
12519;SDS011;6325;49.540;8.364;2022-10-31T04:54:28;5.47;;;4.97;;
12519;SDS011;6325;49.540;8.364;2022-10-31T04:56:55;4.82;;;4.30;;
12519;SDS011;6325;49.540;8.364;2022-10-31T04:59:21;4.57;;;4.18;;
12519;SDS011;6325;49.540;8.364;2022-10-31T05:01:49;5.88;;;4.85;;
12519;SDS011;6325;49.540;8.364;2022-10-31T05:04:16;5.10;;;4.60;;
12519;SDS011;6325;49.540;8.364;2022-10-31T05:06:43;7.80;;;4.65;;
12519;SDS011;6325;49.540;8.364;2022-10-31T05:09:10;7.47;;;4.85;;
12519;SDS011;6325;49.540;8.364;2022-10-31T05:11:39;5.03;;;4.38;;
12519;SDS011;6325;49.540;8.364;2022-10-31T05:14:06;5.05;;;3.85;;
12519;SDS011;6325;49.540;8.364;2022-10-31T05:16:33;3.70;;;3.40;;
12519;SDS011;6325;49.540;8.364;2022-10-31T05:19:00;3.40;;;3.10;;
12519;SDS011;6325;49.540;8.364;2022-10-31T05:21:30;3.47;;;3.25;;
12519;SDS011;6325;49.540;8.364;2022-10-31T05:23:57;4.00;;;3.70;;
12519;SDS011;6325;49.540;8.364;2022-10-31T05:26:24;4.05;;;3.65;;
12519;SDS011;6325;49.540;8.364;2022-10-31T05:28:53;3.60;;;3.30;;
12519;SDS011;6325;49.540;8.364;2022-10-31T05:31:20;4.30;;;3.90;;
12519;SDS011;6325;49.540;8.364;2022-10-31T05:33:47;4.18;;;3.78;;
12519;SDS011;6325;49.540;8.364;2022-10-31T05:36:14;4.13;;;3.75;;
12519;SDS011;6325;49.540;8.364;2022-10-31T05:38:44;3.58;;;3.30;;
12519;SDS011;6325;49.540;8.364;2022-10-31T05:41:13;3.78;;;3.40;;
12519;SDS011;6325;49.540;8.364;2022-10-31T05:43:40;3.88;;;3.30;;
12519;SDS011;6325;49.540;8.364;2022-10-31T05:46:09;3.60;;;3.30;;
12519;SDS011;6325;49.540;8.364;2022-10-31T05:48:39;5.85;;;4.28;;
12519;SDS011;6325;49.540;8.364;2022-10-31T05:51:06;4.97;;;3.95;;
12519;SDS011;6325;49.540;8.364;2022-10-31T05:53:33;3.72;;;3.42;;
12519;SDS011;6325;49.540;8.364;2022-10-31T05:56:01;3.65;;;3.35;;
12519;SDS011;6325;49.540;8.364;2022-10-31T05:58:31;3.50;;;3.20;;
12519;SDS011;6325;49.540;8.364;2022-10-31T06:00:58;3.80;;;3.50;;
12519;SDS011;6325;49.540;8.364;2022-10-31T06:03:27;3.67;;;3.38;;
12519;SDS011;6325;49.540;8.364;2022-10-31T06:05:54;3.60;;;3.30;;
12519;SDS011;6325;49.540;8.364;2022-10-31T06:08:21;4.28;;;3.72;;
12519;SDS011;6325;49.540;8.364;2022-10-31T06:10:48;3.43;;;3.23;;
12519;SDS011;6325;49.540;8.364;2022-10-31T06:13:15;3.65;;;3.30;;
12519;SDS011;6325;49.540;8.364;2022-10-31T06:15:42;3.35;;;3.05;;
12519;SDS011;6325;49.540;8.364;2022-10-31T06:18:09;3.75;;;3.45;;
12519;SDS011;6325;49.540;8.364;2022-10-31T06:20:38;3.47;;;3.17;;
12519;SDS011;6325;49.540;8.364;2022-10-31T06:23:05;3.70;;;3.40;;
12519;SDS011;6325;49.540;8.364;2022-10-31T06:25:32;3.78;;;3.47;;
12519;SDS011;6325;49.540;8.364;2022-10-31T06:27:59;3.50;;;3.20;;
12519;SDS011;6325;49.540;8.364;2022-10-31T06:30:26;3.75;;;3.45;;
12519;SDS011;6325;49.540;8.364;2022-10-31T06:32:54;3.60;;;3.30;;
12519;SDS011;6325;49.540;8.364;2022-10-31T06:35:27;3.42;;;3.13;;
12519;SDS011;6325;49.540;8.364;2022-10-31T06:37:55;3.80;;;3.50;;
12519;SDS011;6325;49.540;8.364;2022-10-31T06:40:22;4.10;;;3.78;;
12519;SDS011;6325;49.540;8.364;2022-10-31T06:42:55;3.85;;;3.55;;
12519;SDS011;6325;49.540;8.364;2022-10-31T06:45:24;3.70;;;3.40;;
12519;SDS011;6325;49.540;8.364;2022-10-31T06:47:53;5.30;;;4.03;;
12519;SDS011;6325;49.540;8.364;2022-10-31T06:50:26;4.32;;;3.90;;
12519;SDS011;6325;49.540;8.364;2022-10-31T06:53:18;4.80;;;4.35;;
12519;SDS011;6325;49.540;8.364;2022-10-31T06:55:49;4.00;;;3.70;;
12519;SDS011;6325;49.540;8.364;2022-10-31T06:58:28;4.63;;;4.22;;
12519;SDS011;6325;49.540;8.364;2022-10-31T07:00:55;4.50;;;4.10;;
12519;SDS011;6325;49.540;8.364;2022-10-31T07:03:24;4.50;;;4.05;;
12519;SDS011;6325;49.540;8.364;2022-10-31T07:05:51;4.60;;;4.20;;
12519;SDS011;6325;49.540;8.364;2022-10-31T07:08:19;4.53;;;4.13;;
12519;SDS011;6325;49.540;8.364;2022-10-31T07:10:50;4.55;;;4.15;;
12519;SDS011;6325;49.540;8.364;2022-10-31T07:13:18;4.55;;;4.18;;
12519;SDS011;6325;49.540;8.364;2022-10-31T07:15:49;4.73;;;4.20;;
12519;SDS011;6325;49.540;8.364;2022-10-31T07:18:17;4.60;;;4.20;;
12519;SDS011;6325;49.540;8.364;2022-10-31T07:20:44;4.22;;;3.92;;
12519;SDS011;6325;49.540;8.364;2022-10-31T07:23:11;4.60;;;4.25;;
12519;SDS011;6325;49.540;8.364;2022-10-31T07:25:40;4.93;;;4.53;;
12519;SDS011;6325;49.540;8.364;2022-10-31T07:28:07;4.38;;;4.07;;
12519;SDS011;6325;49.540;8.364;2022-10-31T07:30:34;4.90;;;4.50;;
12519;SDS011;6325;49.540;8.364;2022-10-31T07:33:01;5.03;;;4.63;;
12519;SDS011;6325;49.540;8.364;2022-10-31T07:35:31;4.90;;;4.50;;
12519;SDS011;6325;49.540;8.364;2022-10-31T07:38:07;4.53;;;4.13;;
12519;SDS011;6325;49.540;8.364;2022-10-31T07:40:35;5.68;;;5.15;;
12519;SDS011;6325;49.540;8.364;2022-10-31T07:43:06;5.23;;;4.70;;
12519;SDS011;6325;49.540;8.364;2022-10-31T07:45:33;5.35;;;4.82;;
12519;SDS011;6325;49.540;8.364;2022-10-31T07:48:00;4.80;;;4.40;;
12519;SDS011;6325;49.540;8.364;2022-10-31T07:50:31;5.63;;;5.13;;
12519;SDS011;6325;49.540;8.364;2022-10-31T07:53:03;5.20;;;4.70;;
12519;SDS011;6325;49.540;8.364;2022-10-31T07:55:41;5.50;;;5.00;;
12519;SDS011;6325;49.540;8.364;2022-10-31T07:58:10;6.22;;;5.60;;
12519;SDS011;6325;49.540;8.364;2022-10-31T08:00:38;6.53;;;5.90;;
12519;SDS011;6325;49.540;8.364;2022-10-31T08:03:07;6.90;;;5.10;;
12519;SDS011;6325;49.540;8.364;2022-10-31T08:05:36;7.28;;;5.70;;
12519;SDS011;6325;49.540;8.364;2022-10-31T08:08:04;5.90;;;5.40;;
12519;SDS011;6325;49.540;8.364;2022-10-31T08:10:32;6.22;;;5.63;;
12519;SDS011;6325;49.540;8.364;2022-10-31T08:13:00;5.72;;;5.22;;
12519;SDS011;6325;49.540;8.364;2022-10-31T08:15:30;6.00;;;5.40;;
12519;SDS011;6325;49.540;8.364;2022-10-31T08:17:59;5.72;;;5.20;;
12519;SDS011;6325;49.540;8.364;2022-10-31T08:20:27;7.25;;;6.28;;
12519;SDS011;6325;49.540;8.364;2022-10-31T08:22:57;5.78;;;5.25;;
12519;SDS011;6325;49.540;8.364;2022-10-31T08:25:26;6.05;;;5.45;;
12519;SDS011;6325;49.540;8.364;2022-10-31T08:27:54;8.13;;;6.47;;
12519;SDS011;6325;49.540;8.364;2022-10-31T08:30:23;6.30;;;5.40;;
12519;SDS011;6325;49.540;8.364;2022-10-31T08:33:00;6.90;;;5.72;;
12519;SDS011;6325;49.540;8.364;2022-10-31T08:35:29;9.85;;;6.70;;
12519;SDS011;6325;49.540;8.364;2022-10-31T08:37:57;17.70;;;7.53;;
12519;SDS011;6325;49.540;8.364;2022-10-31T08:40:30;11.47;;;6.90;;
12519;SDS011;6325;49.540;8.364;2022-10-31T08:42:58;8.80;;;6.20;;
12519;SDS011;6325;49.540;8.364;2022-10-31T08:45:26;10.00;;;6.82;;
12519;SDS011;6325;49.540;8.364;2022-10-31T08:47:56;12.52;;;6.75;;
12519;SDS011;6325;49.540;8.364;2022-10-31T08:50:25;6.72;;;5.97;;
12519;SDS011;6325;49.540;8.364;2022-10-31T08:52:59;7.65;;;5.97;;
12519;SDS011;6325;49.540;8.364;2022-10-31T08:55:27;6.10;;;5.30;;
12519;SDS011;6325;49.540;8.364;2022-10-31T08:57:54;6.72;;;5.60;;
12519;SDS011;6325;49.540;8.364;2022-10-31T09:00:26;7.22;;;5.90;;
12519;SDS011;6325;49.540;8.364;2022-10-31T09:02:56;6.32;;;5.72;;
12519;SDS011;6325;49.540;8.364;2022-10-31T09:05:24;6.50;;;5.80;;
12519;SDS011;6325;49.540;8.364;2022-10-31T09:07:55;6.40;;;5.80;;
12519;SDS011;6325;49.540;8.364;2022-10-31T09:10:33;6.97;;;6.07;;
12519;SDS011;6325;49.540;8.364;2022-10-31T09:13:02;7.18;;;5.80;;
12519;SDS011;6325;49.540;8.364;2022-10-31T09:15:31;7.45;;;6.38;;
12519;SDS011;6325;49.540;8.364;2022-10-31T09:17:59;6.30;;;5.70;;
12519;SDS011;6325;49.540;8.364;2022-10-31T09:20:31;7.57;;;6.50;;
12519;SDS011;6325;49.540;8.364;2022-10-31T09:23:02;10.50;;;7.05;;
12519;SDS011;6325;49.540;8.364;2022-10-31T09:25:32;9.33;;;6.70;;
12519;SDS011;6325;49.540;8.364;2022-10-31T09:28:04;6.90;;;6.10;;
12519;SDS011;6325;49.540;8.364;2022-10-31T09:30:35;8.50;;;6.93;;
12519;SDS011;6325;49.540;8.364;2022-10-31T09:33:03;7.72;;;6.55;;
12519;SDS011;6325;49.540;8.364;2022-10-31T09:35:34;6.60;;;6.00;;
12519;SDS011;6325;49.540;8.364;2022-10-31T09:38:02;7.05;;;5.90;;
12519;SDS011;6325;49.540;8.364;2022-10-31T09:40:31;8.93;;;6.40;;
12519;SDS011;6325;49.540;8.364;2022-10-31T09:43:03;6.70;;;5.82;;
12519;SDS011;6325;49.540;8.364;2022-10-31T09:45:39;7.30;;;6.60;;
12519;SDS011;6325;49.540;8.364;2022-10-31T09:48:17;7.22;;;6.40;;
12519;SDS011;6325;49.540;8.364;2022-10-31T09:50:55;7.73;;;6.47;;
12519;SDS011;6325;49.540;8.364;2022-10-31T09:53:25;7.32;;;6.53;;
12519;SDS011;6325;49.540;8.364;2022-10-31T09:55:57;6.55;;;6.05;;
12519;SDS011;6325;49.540;8.364;2022-10-31T09:58:26;6.35;;;5.75;;
12519;SDS011;6325;49.540;8.364;2022-10-31T10:00:56;7.50;;;6.80;;
12519;SDS011;6325;49.540;8.364;2022-10-31T10:03:30;8.05;;;7.00;;
12519;SDS011;6325;49.540;8.364;2022-10-31T10:06:04;8.10;;;7.25;;
12519;SDS011;6325;49.540;8.364;2022-10-31T10:08:37;7.40;;;6.70;;
12519;SDS011;6325;49.540;8.364;2022-10-31T10:11:12;8.68;;;6.72;;
12519;SDS011;6325;49.540;8.364;2022-10-31T10:13:55;9.02;;;7.85;;
12519;SDS011;6325;49.540;8.364;2022-10-31T10:16:43;8.73;;;6.95;;
12519;SDS011;6325;49.540;8.364;2022-10-31T10:19:25;8.80;;;7.97;;
12519;SDS011;6325;49.540;8.364;2022-10-31T10:22:10;8.23;;;6.80;;
12519;SDS011;6325;49.540;8.364;2022-10-31T10:24:47;8.25;;;6.80;;
12519;SDS011;6325;49.540;8.364;2022-10-31T10:27:27;9.85;;;7.55;;
12519;SDS011;6325;49.540;8.364;2022-10-31T10:30:11;7.05;;;6.38;;
12519;SDS011;6325;49.540;8.364;2022-10-31T10:32:42;7.03;;;6.32;;
12519;SDS011;6325;49.540;8.364;2022-10-31T10:35:14;7.55;;;6.85;;
12519;SDS011;6325;49.540;8.364;2022-10-31T10:37:52;8.75;;;7.35;;
12519;SDS011;6325;49.540;8.364;2022-10-31T10:40:24;8.43;;;6.90;;
12519;SDS011;6325;49.540;8.364;2022-10-31T10:42:56;8.88;;;6.95;;
12519;SDS011;6325;49.540;8.364;2022-10-31T10:45:48;9.43;;;7.33;;
12519;SDS011;6325;49.540;8.364;2022-10-31T10:48:38;9.85;;;7.22;;
12519;SDS011;6325;49.540;8.364;2022-10-31T10:51:22;13.35;;;8.40;;
12519;SDS011;6325;49.540;8.364;2022-10-31T10:53:58;10.25;;;7.82;;
12519;SDS011;6325;49.540;8.364;2022-10-31T10:56:51;12.10;;;8.32;;
12519;SDS011;6325;49.540;8.364;2022-10-31T10:59:25;9.63;;;7.57;;
12519;SDS011;6325;49.540;8.364;2022-10-31T11:01:58;9.38;;;7.40;;
12519;SDS011;6325;49.540;8.364;2022-10-31T11:04:48;12.73;;;8.23;;
12519;SDS011;6325;49.540;8.364;2022-10-31T11:07:18;9.68;;;8.00;;
12519;SDS011;6325;49.540;8.364;2022-10-31T11:13:33;7.30;;;6.60;;
12519;SDS011;6325;49.540;8.364;2022-10-31T11:16:09;9.55;;;7.72;;
12519;SDS011;6325;49.540;8.364;2022-10-31T11:18:39;7.88;;;7.03;;
12519;SDS011;6325;49.540;8.364;2022-10-31T11:21:19;11.90;;;8.00;;
12519;SDS011;6325;49.540;8.364;2022-10-31T11:23:47;8.13;;;7.25;;
12519;SDS011;6325;49.540;8.364;2022-10-31T11:26:18;8.07;;;7.28;;
12519;SDS011;6325;49.540;8.364;2022-10-31T11:28:57;7.30;;;6.57;;
12519;SDS011;6325;49.540;8.364;2022-10-31T11:31:27;7.22;;;6.45;;
12519;SDS011;6325;49.540;8.364;2022-10-31T11:33:55;8.03;;;6.73;;
12519;SDS011;6325;49.540;8.364;2022-10-31T11:36:29;9.25;;;7.20;;
12519;SDS011;6325;49.540;8.364;2022-10-31T11:38:59;7.47;;;6.60;;
12519;SDS011;6325;49.540;8.364;2022-10-31T11:41:30;8.18;;;6.75;;
12519;SDS011;6325;49.540;8.364;2022-10-31T11:44:02;7.50;;;6.70;;
12519;SDS011;6325;49.540;8.364;2022-10-31T11:46:32;12.20;;;8.60;;
12519;SDS011;6325;49.540;8.364;2022-10-31T11:49:03;9.93;;;7.22;;
12519;SDS011;6325;49.540;8.364;2022-10-31T11:51:37;7.90;;;6.70;;
12519;SDS011;6325;49.540;8.364;2022-10-31T11:54:15;8.80;;;7.38;;
12519;SDS011;6325;49.540;8.364;2022-10-31T11:56:48;7.70;;;6.77;;
12519;SDS011;6325;49.540;8.364;2022-10-31T11:59:17;8.38;;;7.20;;
12519;SDS011;6325;49.540;8.364;2022-10-31T12:01:49;8.65;;;7.72;;
12519;SDS011;6325;49.540;8.364;2022-10-31T12:04:19;11.80;;;8.10;;
12519;SDS011;6325;49.540;8.364;2022-10-31T12:07:04;7.85;;;6.50;;
12519;SDS011;6325;49.540;8.364;2022-10-31T12:09:35;9.82;;;7.10;;
12519;SDS011;6325;49.540;8.364;2022-10-31T12:12:24;9.32;;;7.75;;
12519;SDS011;6325;49.540;8.364;2022-10-31T12:15:22;7.18;;;6.40;;
12519;SDS011;6325;49.540;8.364;2022-10-31T12:21:00;6.30;;;5.70;;
12519;SDS011;6325;49.540;8.364;2022-10-31T12:23:48;6.60;;;6.00;;
12519;SDS011;6325;49.540;8.364;2022-10-31T12:26:26;7.65;;;6.43;;
12519;SDS011;6325;49.540;8.364;2022-10-31T12:29:07;9.45;;;6.97;;
12519;SDS011;6325;49.540;8.364;2022-10-31T12:31:46;9.13;;;6.78;;
12519;SDS011;6325;49.540;8.364;2022-10-31T12:34:29;9.18;;;7.15;;
12519;SDS011;6325;49.540;8.364;2022-10-31T12:37:19;7.05;;;6.35;;
12519;SDS011;6325;49.540;8.364;2022-10-31T12:39:59;7.45;;;6.65;;
12519;SDS011;6325;49.540;8.364;2022-10-31T12:42:47;7.75;;;6.05;;
12519;SDS011;6325;49.540;8.364;2022-10-31T12:45:32;8.77;;;6.88;;
12519;SDS011;6325;49.540;8.364;2022-10-31T12:51:33;9.15;;;7.57;;
12519;SDS011;6325;49.540;8.364;2022-10-31T12:54:19;6.60;;;6.00;;
12519;SDS011;6325;49.540;8.364;2022-10-31T12:57:11;6.10;;;5.40;;
12519;SDS011;6325;49.540;8.364;2022-10-31T12:59:47;7.57;;;6.78;;
12519;SDS011;6325;49.540;8.364;2022-10-31T13:02:18;7.53;;;6.78;;
12519;SDS011;6325;49.540;8.364;2022-10-31T13:04:51;7.40;;;6.60;;
12519;SDS011;6325;49.540;8.364;2022-10-31T13:07:23;9.00;;;7.32;;
12519;SDS011;6325;49.540;8.364;2022-10-31T13:09:55;7.93;;;7.00;;
12519;SDS011;6325;49.540;8.364;2022-10-31T13:12:27;9.95;;;8.55;;
12519;SDS011;6325;49.540;8.364;2022-10-31T13:14:56;8.13;;;7.20;;
12519;SDS011;6325;49.540;8.364;2022-10-31T13:17:27;7.80;;;7.00;;
12519;SDS011;6325;49.540;8.364;2022-10-31T13:20:05;7.97;;;7.00;;
12519;SDS011;6325;49.540;8.364;2022-10-31T13:22:41;8.90;;;7.10;;
12519;SDS011;6325;49.540;8.364;2022-10-31T13:25:11;9.35;;;7.47;;
12519;SDS011;6325;49.540;8.364;2022-10-31T13:27:44;9.25;;;7.82;;
12519;SDS011;6325;49.540;8.364;2022-10-31T13:30:15;8.90;;;8.05;;
12519;SDS011;6325;49.540;8.364;2022-10-31T13:32:48;7.32;;;6.70;;
12519;SDS011;6325;49.540;8.364;2022-10-31T13:35:23;8.63;;;7.72;;
12519;SDS011;6325;49.540;8.364;2022-10-31T13:37:57;7.85;;;7.05;;
12519;SDS011;6325;49.540;8.364;2022-10-31T13:40:38;10.23;;;8.57;;
12519;SDS011;6325;49.540;8.364;2022-10-31T13:43:23;7.53;;;6.82;;
12519;SDS011;6325;49.540;8.364;2022-10-31T13:45:58;7.00;;;6.30;;
12519;SDS011;6325;49.540;8.364;2022-10-31T13:48:33;7.53;;;6.80;;
12519;SDS011;6325;49.540;8.364;2022-10-31T13:51:08;8.77;;;7.82;;
12519;SDS011;6325;49.540;8.364;2022-10-31T13:53:43;9.23;;;8.25;;
12519;SDS011;6325;49.540;8.364;2022-10-31T13:56:25;11.18;;;8.38;;
12519;SDS011;6325;49.540;8.364;2022-10-31T13:58:59;9.23;;;8.32;;
12519;SDS011;6325;49.540;8.364;2022-10-31T14:01:29;10.73;;;8.93;;
12519;SDS011;6325;49.540;8.364;2022-10-31T14:04:01;12.13;;;8.82;;
12519;SDS011;6325;49.540;8.364;2022-10-31T14:06:39;9.63;;;7.60;;
12519;SDS011;6325;49.540;8.364;2022-10-31T14:09:20;8.50;;;7.57;;
12519;SDS011;6325;49.540;8.364;2022-10-31T14:11:51;8.95;;;7.28;;
12519;SDS011;6325;49.540;8.364;2022-10-31T14:14:19;7.53;;;6.45;;
12519;SDS011;6325;49.540;8.364;2022-10-31T14:16:52;9.35;;;7.35;;
12519;SDS011;6325;49.540;8.364;2022-10-31T14:19:23;11.85;;;7.72;;
12519;SDS011;6325;49.540;8.364;2022-10-31T14:21:57;8.45;;;6.88;;
12519;SDS011;6325;49.540;8.364;2022-10-31T14:24:34;9.55;;;7.72;;
12519;SDS011;6325;49.540;8.364;2022-10-31T14:27:04;10.80;;;8.47;;
12519;SDS011;6325;49.540;8.364;2022-10-31T14:29:47;7.23;;;6.30;;
12519;SDS011;6325;49.540;8.364;2022-10-31T14:32:18;5.53;;;5.03;;
12519;SDS011;6325;49.540;8.364;2022-10-31T14:34:52;8.95;;;6.80;;
12519;SDS011;6325;49.540;8.364;2022-10-31T14:37:28;7.40;;;6.28;;
12519;SDS011;6325;49.540;8.364;2022-10-31T14:40:16;5.93;;;5.40;;
12519;SDS011;6325;49.540;8.364;2022-10-31T14:42:56;5.13;;;4.53;;
12519;SDS011;6325;49.540;8.364;2022-10-31T14:45:37;5.70;;;5.18;;
12519;SDS011;6325;49.540;8.364;2022-10-31T14:48:15;5.90;;;5.28;;
12519;SDS011;6325;49.540;8.364;2022-10-31T14:50:54;9.82;;;6.50;;
12519;SDS011;6325;49.540;8.364;2022-10-31T14:53:31;9.13;;;6.97;;
12519;SDS011;6325;49.540;8.364;2022-10-31T14:56:01;12.80;;;7.90;;
12519;SDS011;6325;49.540;8.364;2022-10-31T14:58:28;10.90;;;7.13;;
12519;SDS011;6325;49.540;8.364;2022-10-31T15:01:01;8.35;;;6.55;;
12519;SDS011;6325;49.540;8.364;2022-10-31T15:03:33;8.63;;;6.95;;
12519;SDS011;6325;49.540;8.364;2022-10-31T15:06:03;6.22;;;5.63;;
12519;SDS011;6325;49.540;8.364;2022-10-31T15:08:39;7.53;;;5.68;;
12519;SDS011;6325;49.540;8.364;2022-10-31T15:11:10;6.93;;;5.57;;
12519;SDS011;6325;49.540;8.364;2022-10-31T15:13:42;6.18;;;5.53;;
12519;SDS011;6325;49.540;8.364;2022-10-31T15:16:10;7.20;;;6.00;;
12519;SDS011;6325;49.540;8.364;2022-10-31T15:18:44;10.20;;;7.78;;
12519;SDS011;6325;49.540;8.364;2022-10-31T15:21:14;7.38;;;6.40;;
12519;SDS011;6325;49.540;8.364;2022-10-31T15:23:43;6.03;;;5.53;;
12519;SDS011;6325;49.540;8.364;2022-10-31T15:26:14;10.20;;;8.23;;
12519;SDS011;6325;49.540;8.364;2022-10-31T15:28:44;7.40;;;6.68;;
12519;SDS011;6325;49.540;8.364;2022-10-31T15:31:15;7.05;;;6.35;;
12519;SDS011;6325;49.540;8.364;2022-10-31T15:33:45;6.20;;;5.60;;
12519;SDS011;6325;49.540;8.364;2022-10-31T15:36:18;7.25;;;6.07;;
12519;SDS011;6325;49.540;8.364;2022-10-31T15:38:48;6.55;;;5.85;;
12519;SDS011;6325;49.540;8.364;2022-10-31T15:41:20;8.75;;;7.50;;
12519;SDS011;6325;49.540;8.364;2022-10-31T15:43:53;7.03;;;6.40;;